Time;durP1;ratioP1;P1;durP2;ratioP2;P2;SDS_P1;SDS_P2;PMS_P1;PMS_P2;Temp;Humidity;BMP_temperature;BMP_pressure;BME280_temperature;BME280_humidity;BME280_pressure;Samples;Min_cycle;Max_cycle;Signal;HPM_P1;HPM_P2
2021/10/18 00:01:14;;;;;;;;;20.00;20.00;;;;;14.11;54.31;101613.38;6247081;22;45401;-64
2021/10/18 00:03:39;;;;;;;;;17.25;15.50;;;;;14.45;54.46;101669.53;6247540;22;45318;-64
2021/10/18 00:06:05;;;;;;;;;21.00;19.75;;;;;14.10;54.70;101603.56;6245679;22;45968;-64
2021/10/18 00:08:31;;;;;;;;;16.75;16.75;;;;;14.21;54.34;101624.69;6245192;22;47157;-64
2021/10/18 00:11:06;;;;;;;;;;;;;;;;;;;;;
2021/10/18 00:13:34;;;;;;;;;21.25;20.25;;;;;14.39;54.24;101642.84;6245729;22;68075;-64
2021/10/18 00:16:00;;;;;;;;;23.00;20.75;;;;;14.26;54.37;101630.78;6247565;22;45267;-64
2021/10/18 00:18:26;;;;;;;;;26.25;24.50;;;;;14.20;54.28;101618.44;6245202;22;46918;-64
2021/10/18 00:20:51;;;;;;;;;20.50;18.50;;;;;14.24;54.47;101629.94;6245305;22;45134;-64
2021/10/18 00:23:19;;;;;;;;;20.00;19.00;;;;;14.38;54.63;101653.66;6244905;22;45378;-64
2021/10/18 00:25:47;;;;;;;;;25.25;20.25;;;;;14.39;54.34;101667.03;6247242;22;45311;-64
2021/10/18 00:28:12;;;;;;;;;19.75;18.00;;;;;14.18;54.35;101622.09;6246587;22;46100;-64
2021/10/18 00:30:38;;;;;;;;;19.75;19.00;;;;;14.17;54.67;101628.41;6247345;22;45182;-64
2021/10/18 00:33:04;;;;;;;;;26.75;23.75;;;;;14.31;54.75;101650.28;6246932;22;45345;-64
2021/10/18 00:35:29;;;;;;;;;25.00;22.00;;;;;14.29;54.66;101656.66;6244927;22;45221;-64
2021/10/18 00:37:55;;;;;;;;;25.00;23.50;;;;;13.98;54.59;101607.53;6246692;22;46249;-64
2021/10/18 00:40:20;;;;;;;;;20.50;19.50;;;;;14.23;54.92;101645.19;6247125;22;45187;-64
2021/10/18 00:42:46;;;;;;;;;24.25;23.25;;;;;13.99;54.79;101620.03;6246812;22;45167;-64
2021/10/18 00:45:19;;;;;;;;;24.75;23.25;;;;;14.08;54.69;101633.16;6219939;22;45111;-64
2021/10/18 00:47:47;;;;;;;;;23.25;21.25;;;;;14.04;54.90;101626.13;6246248;22;45322;-64
2021/10/18 00:50:13;;;;;;;;;26.75;23.50;;;;;14.04;54.89;101631.47;6246832;22;45090;-64
2021/10/18 00:52:43;;;;;;;;;24.00;23.00;;;;;14.04;54.73;101635.97;6246701;22;45382;-64
2021/10/18 00:55:10;;;;;;;;;24.25;21.75;;;;;14.15;54.82;101651.72;6247037;22;45237;-63
2021/10/18 00:57:36;;;;;;;;;20.75;20.75;;;;;14.06;54.92;101642.16;6246475;22;46364;-64
2021/10/18 01:00:08;;;;;;;;;22.75;21.75;;;;;13.92;55.08;101617.59;6244562;22;45203;-64
2021/10/18 01:02:36;;;;;;;;;23.25;23.25;;;;;14.00;54.86;101640.59;6246836;22;45305;-64
2021/10/18 01:05:02;;;;;;;;;24.25;24.00;;;;;14.19;55.05;101673.06;6246608;22;45253;-64
2021/10/18 01:07:27;;;;;;;;;22.00;20.75;;;;;14.01;54.96;101636.94;6244403;22;47096;-64
2021/10/18 01:09:53;;;;;;;;;27.75;25.50;;;;;14.11;55.08;101658.13;6246618;22;45312;-63
2021/10/18 01:12:18;;;;;;;;;21.25;21.25;;;;;13.92;54.88;101625.66;6247212;22;45295;-64
2021/10/18 01:14:46;;;;;;;;;24.00;21.75;;;;;13.97;54.76;101631.75;6248056;22;45640;-64
2021/10/18 01:17:12;;;;;;;;;23.25;22.25;;;;;13.83;54.92;101622.34;6248053;22;46860;-64
2021/10/18 01:19:37;;;;;;;;;24.50;22.50;;;;;13.95;55.04;101634.47;6248159;22;45343;-64
2021/10/18 01:22:03;;;;;;;;;23.75;23.00;;;;;13.95;54.93;101637.16;6248367;22;45189;-64
2021/10/18 01:24:34;;;;;;;;;27.50;25.00;;;;;14.04;55.00;101661.00;6247970;22;45182;-64
2021/10/18 01:26:59;;;;;;;;;21.75;21.00;;;;;13.95;54.66;101645.22;6248193;22;45362;-64
2021/10/18 01:29:35;;;;;;;;;24.25;22.75;;;;;13.95;55.00;101629.13;6247882;22;45319;-64
2021/10/18 01:32:02;;;;;;;;;26.25;23.25;;;;;13.99;55.01;101637.94;6248098;22;45317;-64
2021/10/18 01:34:29;;;;;;;;;21.75;21.25;;;;;13.88;54.91;101625.75;6247728;22;45316;-64
2021/10/18 01:36:58;;;;;;;;;24.75;22.50;;;;;13.88;55.07;101632.91;6247962;22;46440;-64
2021/10/18 01:39:24;;;;;;;;;26.00;22.75;;;;;13.73;54.95;101611.94;6247900;22;45246;-64
2021/10/18 01:41:52;;;;;;;;;25.50;24.25;;;;;14.08;55.06;101667.16;6246539;22;45293;-64
2021/10/18 01:44:18;;;;;;;;;21.25;20.50;;;;;14.05;55.40;101664.59;6245446;22;45550;-64
2021/10/18 01:46:43;;;;;;;;;27.75;26.00;;;;;13.95;55.13;101649.69;6248047;22;45099;-64
2021/10/18 01:49:16;;;;;;;;;25.00;23.25;;;;;13.60;55.00;101593.56;6247450;22;45094;-64
2021/10/18 01:51:44;;;;;;;;;20.00;20.00;;;;;13.69;55.32;101606.66;6248694;22;45381;-64
2021/10/18 01:54:10;;;;;;;;;25.25;25.25;;;;;13.67;54.94;101603.16;6220112;22;45190;-64
2021/10/18 01:56:35;;;;;;;;;25.50;24.50;;;;;13.76;55.21;101615.38;6248171;22;45167;-64
2021/10/18 01:59:03;;;;;;;;;23.25;22.25;;;;;13.72;54.92;101611.06;6247868;22;45228;-64
2021/10/18 02:01:28;;;;;;;;;22.75;22.00;;;;;13.74;55.33;101611.00;6247541;22;45383;-64
2021/10/18 02:03:54;;;;;;;;;22.00;19.50;;;;;13.66;55.27;101598.69;6247489;22;45414;-64
2021/10/18 02:06:19;;;;;;;;;23.00;21.50;;;;;13.75;55.51;101620.81;6245890;22;45887;-64
2021/10/18 02:08:45;;;;;;;;;25.50;23.50;;;;;13.61;55.71;101595.28;6247668;22;45294;-64
2021/10/18 02:11:13;;;;;;;;;24.25;24.25;;;;;13.84;55.45;101642.00;6247987;22;45263;-64
2021/10/18 02:13:41;;;;;;;;;24.25;21.50;;;;;13.65;55.44;101613.06;6247626;22;45157;-64
2021/10/18 02:16:06;;;;;;;;;18.00;18.00;;;;;13.58;55.56;101607.91;6247945;22;46034;-64
2021/10/18 02:18:32;;;;;;;;;23.25;21.25;;;;;13.39;55.41;101575.44;6248042;22;45209;-64
2021/10/18 02:21:01;;;;;;;;;25.00;22.75;;;;;13.66;55.45;101628.22;6248356;22;45259;-64
2021/10/18 02:23:31;;;;;;;;;25.75;23.50;;;;;13.68;55.64;101642.47;6247376;22;45479;-64
2021/10/18 02:25:56;;;;;;;;;21.50;18.75;;;;;13.37;55.69;101585.34;6247787;22;46492;-64
2021/10/18 02:28:22;;;;;;;;;23.25;22.75;;;;;13.52;55.60;101617.06;6247760;22;45259;-64
2021/10/18 02:30:49;;;;;;;;;25.00;23.25;;;;;13.27;55.71;101574.84;6247953;22;45252;-64
2021/10/18 02:33:14;;;;;;;;;24.75;24.00;;;;;13.48;55.73;101616.25;6247403;22;45490;-64
2021/10/18 02:35:40;;;;;;;;;24.75;24.00;;;;;13.59;55.79;101641.88;6245789;22;45778;-64
2021/10/18 02:38:05;;;;;;;;;30.75;30.00;;;;;13.48;55.64;101620.72;6247946;22;45311;-64
2021/10/18 02:40:33;;;;;;;;;26.50;25.00;;;;;13.27;55.78;101576.66;6248306;22;45272;-64
2021/10/18 02:42:59;;;;;;;;;22.50;21.00;;;;;13.58;56.02;101624.00;6247171;22;45168;-64
2021/10/18 02:45:27;;;;;;;;;25.50;22.75;;;;;13.37;56.12;101588.03;6247876;22;46025;-63
2021/10/18 02:47:57;;;;;;;;;23.50;21.75;;;;;13.56;56.20;101628.56;6247022;22;45362;-64
2021/10/18 02:50:23;;;;;;;;;25.25;22.75;;;;;13.55;56.06;101629.47;6247693;22;45205;-64
2021/10/18 02:52:48;;;;;;;;;25.75;25.75;;;;;13.55;56.07;101622.31;6247686;22;45153;-64
2021/10/18 02:55:21;;;;;;;;;29.00;25.00;;;;;13.32;55.84;101591.72;6247507;22;46142;-64
2021/10/18 02:57:47;;;;;;;;;21.50;20.75;;;;;13.37;56.19;101593.38;6247728;22;45502;-64
2021/10/18 03:00:13;;;;;;;;;25.75;21.75;;;;;13.33;55.70;101580.06;6247784;22;45170;-64
2021/10/18 03:02:39;;;;;;;;;18.50;18.50;;;;;13.57;56.02;101606.19;6247537;22;45264;-64
2021/10/18 03:05:07;;;;;;;;;25.50;25.50;;;;;13.47;56.08;101598.41;6247488;22;45994;-64
2021/10/18 03:07:33;;;;;;;;;23.75;22.25;;;;;13.33;55.96;101571.13;6247570;22;45708;-64
2021/10/18 03:09:58;;;;;;;;;22.50;22.00;;;;;13.22;55.99;101552.66;6247941;22;45239;-64
2021/10/18 03:12:31;;;;;;;;;26.00;25.00;;;;;13.49;56.41;101595.69;6245286;22;45446;-64
2021/10/18 03:14:57;;;;;;;;;27.50;22.50;;;;;13.15;56.14;101538.56;6247511;22;45432;-64
2021/10/18 03:17:24;;;;;;;;;23.50;19.50;;;;;13.19;56.24;101551.88;6245726;22;45762;-64
2021/10/18 03:19:50;;;;;;;;;23.00;22.25;;;;;13.14;56.25;101544.84;6247527;22;45325;-64
2021/10/18 03:22:15;;;;;;;;;24.25;20.25;;;;;13.41;56.24;101589.66;6247575;22;45487;-64
2021/10/18 03:24:41;;;;;;;;;26.50;24.50;;;;;13.18;56.32;101569.78;6247310;22;45374;-64
2021/10/18 03:27:07;;;;;;;;;27.50;24.25;;;;;12.97;55.90;101537.31;6247638;22;45223;-64
2021/10/18 03:29:32;;;;;;;;;24.25;20.50;;;;;13.36;56.75;101613.06;6247461;22;45254;-64
2021/10/18 03:32:00;;;;;;;;;25.25;21.25;;;;;13.08;56.48;101565.59;6247566;22;45280;-63
2021/10/18 03:34:26;;;;;;;;;18.75;18.75;;;;;13.07;56.57;101571.91;6246945;22;45272;-64
2021/10/18 03:36:51;;;;;;;;;25.00;21.75;;;;;13.01;56.40;101564.03;6247063;22;45185;-63
2021/10/18 03:39:17;;;;;;;;;21.25;20.00;;;;;13.24;56.71;101603.56;6247799;22;45079;-63
2021/10/18 03:41:45;;;;;;;;;26.00;24.25;;;;;13.13;56.49;101585.09;6247944;22;45272;-63
2021/10/18 03:44:13;;;;;;;;;21.25;20.50;;;;;13.09;56.34;101594.16;6246568;22;45406;-64
2021/10/18 03:46:39;;;;;;;;;24.75;24.00;;;;;13.25;56.59;101622.28;6247754;22;45530;-63
2021/10/18 03:49:04;;;;;;;;;22.25;19.00;;;;;13.23;56.23;101618.78;6247058;22;45093;-63
2021/10/18 03:51:30;;;;;;;;;23.25;21.25;;;;;13.26;56.63;101631.19;6247599;22;45443;-63
2021/10/18 03:53:55;;;;;;;;;19.50;19.00;;;;;13.04;56.55;101604.16;6247157;22;45261;-63
2021/10/18 03:56:21;;;;;;;;;22.50;18.25;;;;;12.95;56.86;101591.91;6247534;22;45236;-63
2021/10/18 03:58:47;;;;;;;;;23.00;20.25;;;;;13.07;56.99;101607.59;6247271;22;45214;-64
2021/10/18 04:01:12;;;;;;;;;20.25;19.25;;;;;12.86;56.99;101568.91;6247600;22;45168;-64
2021/10/18 04:03:40;;;;;;;;;19.00;19.00;;;;;12.91;56.46;101582.16;6247388;22;45532;-64
2021/10/18 04:06:05;;;;;;;;;19.00;19.00;;;;;13.01;56.98;101604.22;6247179;22;45192;-63
2021/10/18 04:08:32;;;;;;;;;20.75;19.25;;;;;12.96;56.70;101605.25;6247409;22;45339;-64
2021/10/18 04:10:59;;;;;;;;;16.75;15.75;;;;;12.98;56.73;101611.44;6246948;22;45245;-63
2021/10/18 04:13:25;;;;;;;;;22.75;21.25;;;;;12.72;56.56;101585.38;6246384;22;45639;-63
2021/10/18 04:15:51;;;;;;;;;24.25;21.75;;;;;12.95;56.69;101610.66;6247312;22;45170;-64
2021/10/18 04:18:17;;;;;;;;;21.25;18.75;;;;;12.96;56.95;101613.28;6245423;22;45179;-64
2021/10/18 04:20:42;;;;;;;;;19.75;19.25;;;;;12.75;56.72;101579.06;6247451;22;45398;-64
2021/10/18 04:23:08;;;;;;;;;22.25;16.75;;;;;12.91;56.84;101615.22;6246626;22;45540;-64
2021/10/18 04:25:33;;;;;;;;;21.50;21.00;;;;;12.88;56.53;101626.03;6247296;22;45383;-64
2021/10/18 04:27:59;;;;;;;;;19.50;19.50;;;;;12.71;56.92;101604.16;6247225;22;45491;-63
2021/10/18 04:30:24;;;;;;;;;22.00;18.25;;;;;12.72;57.04;101609.47;6247348;22;45486;-64
2021/10/18 04:32:50;;;;;;;;;22.50;18.00;;;;;12.97;56.92;101651.69;6246751;22;45318;-63
2021/10/18 04:35:15;;;;;;;;;19.75;19.75;;;;;12.65;56.90;101607.03;6247119;22;45364;-63
2021/10/18 04:37:41;;;;;;;;;21.25;19.25;;;;;12.72;57.12;101622.88;6247253;22;45244;-63
2021/10/18 04:40:07;;;;;;;;;21.50;19.00;;;;;12.90;57.10;101661.69;6247535;22;45256;-64
2021/10/18 04:42:32;;;;;;;;;20.50;19.00;;;;;12.86;57.17;101661.81;6246883;22;46478;-64
2021/10/18 04:44:58;;;;;;;;;19.75;19.75;;;;;12.79;56.91;101661.97;6219450;22;45474;-64
2021/10/18 04:47:23;;;;;;;;;16.50;16.00;;;;;12.73;57.03;101648.75;6245766;22;45177;-64
2021/10/18 04:49:49;;;;;;;;;18.50;16.75;;;;;12.73;57.10;101647.84;6248806;22;45285;-64
2021/10/18 04:52:14;;;;;;;;;19.00;18.00;;;;;12.62;57.46;101642.78;6246270;22;46175;-63
2021/10/18 04:54:42;;;;;;;;;21.50;19.00;;;;;12.58;57.66;101641.13;6246182;22;45252;-63
2021/10/18 04:57:08;;;;;;;;;18.50;18.50;;;;;12.53;57.22;101633.22;6246641;22;45382;-63
2021/10/18 04:59:36;;;;;;;;;21.75;19.75;;;;;12.38;57.55;101614.88;6248026;22;45237;-63
2021/10/18 05:02:01;;;;;;;;;21.50;17.75;;;;;12.47;57.30;101635.19;6247918;22;45547;-64
2021/10/18 05:04:27;;;;;;;;;22.75;21.00;;;;;12.57;57.39;101660.78;6247898;22;45378;-63
2021/10/18 05:06:53;;;;;;;;;24.50;20.00;;;;;12.52;57.49;101652.88;6248361;22;45404;-64
2021/10/18 05:09:20;;;;;;;;;24.75;20.75;;;;;12.41;57.88;101638.88;6248041;22;45157;-64
2021/10/18 05:11:46;;;;;;;;;18.00;18.00;;;;;12.55;57.76;101668.00;6247912;22;45967;-64
2021/10/18 05:14:11;;;;;;;;;27.50;24.25;;;;;12.41;57.77;101639.78;6247829;22;45118;-64
2021/10/18 05:16:38;;;;;;;;;21.75;19.00;;;;;12.53;57.70;101670.72;6245909;22;45910;-64
2021/10/18 05:19:03;;;;;;;;;26.25;22.75;;;;;12.64;57.83;101694.53;6245933;22;45652;-64
2021/10/18 05:21:29;;;;;;;;;19.50;19.00;;;;;12.47;57.82;101664.63;6248159;22;45603;-64
2021/10/18 05:23:54;;;;;;;;;23.75;19.50;;;;;12.60;57.63;101693.72;6247956;22;45413;-64
2021/10/18 05:26:25;;;;;;;;;21.75;21.00;;;;;12.53;57.54;101684.09;6248539;22;45353;-64
2021/10/18 05:28:51;;;;;;;;;26.25;23.50;;;;;12.28;57.80;101638.31;6247033;22;45702;-64
2021/10/18 05:31:16;;;;;;;;;23.25;20.25;;;;;12.45;57.72;101667.34;6247714;22;45467;-64
2021/10/18 05:33:42;;;;;;;;;19.75;19.75;;;;;12.39;58.02;101656.78;6247055;22;45270;-63
2021/10/18 05:36:07;;;;;;;;;23.25;18.25;;;;;12.28;57.80;101649.03;6248422;22;45448;-63
2021/10/18 05:38:33;;;;;;;;;21.50;21.00;;;;;12.29;58.09;101649.91;6247514;22;45407;-64
2021/10/18 05:40:58;;;;;;;;;21.50;17.50;;;;;12.37;57.70;101663.97;6248154;22;46189;-64
2021/10/18 05:43:24;;;;;;;;;23.75;21.75;;;;;12.53;57.89;101686.78;6246937;22;45324;-64
2021/10/18 05:45:49;;;;;;;;;19.50;18.50;;;;;12.37;58.11;101661.31;6220809;22;45353;-64
2021/10/18 05:48:25;;;;;;;;;20.50;19.25;;;;;12.37;57.70;101669.34;6247347;22;45407;-64
2021/10/18 05:50:51;;;;;;;;;22.75;18.75;;;;;12.52;57.82;101684.13;6247095;22;45399;-63
2021/10/18 05:53:19;;;;;;;;;21.25;21.00;;;;;12.33;57.86;101656.94;6246367;22;45465;-65
2021/10/18 05:55:45;;;;;;;;;23.00;22.00;;;;;12.41;58.16;101657.63;6246743;22;45221;-65
2021/10/18 06:40:53;;;;;;;;;22.50;21.75;;;;;12.27;58.19;101659.78;6305335;22;45547;-65
2021/10/18 06:43:20;;;;;;;;;20.75;19.75;;;;;12.37;58.30;101680.03;6307864;22;45391;-65
2021/10/18 06:45:47;;;;;;;;;21.75;20.75;;;;;12.57;58.37;101720.59;6308000;22;45262;-65
2021/10/18 06:48:20;;;;;;;;;23.25;22.75;;;;;12.36;58.10;101699.69;6280459;22;45311;-65
2021/10/18 06:50:47;;;;;;;;;19.75;17.25;;;;;12.34;58.43;101691.69;6302132;22;45338;-64
2021/10/18 06:53:18;;;;;;;;;21.25;19.75;;;;;12.49;58.32;101716.34;6306044;22;45927;-65
2021/10/18 06:55:44;;;;;;;;;22.00;20.50;;;;;12.56;58.56;101736.69;6305148;22;45667;-64
2021/10/18 06:58:10;;;;;;;;;20.00;17.75;;;;;12.42;58.37;101716.47;6307008;22;45579;-64
2021/10/18 07:00:36;;;;;;;;;21.00;20.75;;;;;12.51;58.19;101731.47;6300863;22;45560;-64
2021/10/18 07:03:03;;;;;;;;;23.50;20.50;;;;;12.51;58.51;101736.81;6275310;22;46673;-64
2021/10/18 07:05:28;;;;;;;;;25.75;24.00;;;;;12.20;58.68;101683.13;6305487;22;45714;-64
2021/10/18 07:07:54;;;;;;;;;31.00;24.00;;;;;12.07;58.63;101666.47;6280550;22;45491;-64
2021/10/18 07:10:19;;;;;;;;;23.00;22.25;;;;;12.26;58.43;101700.84;6308618;22;45496;-64
2021/10/18 07:12:44;;;;;;;;;29.00;24.50;;;;;12.38;59.02;101722.84;6280005;22;47018;-64
2021/10/18 07:15:10;;;;;;;;;26.25;22.50;;;;;12.12;58.69;101690.47;6308961;22;45274;-64
2021/10/18 07:17:35;;;;;;;;;22.75;22.50;;;;;12.22;58.82;101708.94;6308202;22;45325;-64
2021/10/18 07:20:03;;;;;;;;;21.50;17.50;;;;;12.39;58.69;101737.09;6279891;22;45945;-64
2021/10/18 07:22:41;;;;;;;;;22.00;20.75;;;;;12.44;58.75;101737.88;6308468;22;45286;-64
2021/10/18 07:25:07;;;;;;;;;21.00;19.25;;;;;12.31;58.81;101720.34;6280332;22;45302;-64
2021/10/18 07:27:33;;;;;;;;;24.00;21.50;;;;;12.33;58.80;101718.50;6280847;22;45293;-64
2021/10/18 07:29:59;;;;;;;;;21.75;19.00;;;;;12.34;58.99;101709.56;6280109;22;45483;-65
2021/10/18 07:32:28;;;;;;;;;20.75;18.25;;;;;12.46;59.30;101729.81;6308775;22;46077;-64
2021/10/18 07:34:56;;;;;;;;;20.50;19.25;;;;;12.31;58.93;101710.53;6308066;22;45281;-66
2021/10/18 07:37:26;;;;;;;;;26.00;25.00;;;;;12.48;59.00;101741.34;6309337;22;45100;-65
2021/10/18 07:39:52;;;;;;;;;25.25;21.50;;;;;12.50;59.51;101740.41;6307652;22;45435;-64
2021/10/18 07:42:17;;;;;;;;;25.50;22.00;;;;;12.31;59.41;101706.97;6308547;22;45364;-64
2021/10/18 07:44:43;;;;;;;;;24.25;21.50;;;;;12.30;59.24;101713.25;6308400;22;45320;-64
2021/10/18 07:47:09;;;;;;;;;24.50;22.25;;;;;12.15;59.50;101680.56;6308280;22;45552;-64
2021/10/18 07:49:40;;;;;;;;;23.50;20.00;;;;;12.45;59.39;101723.56;6308075;22;45083;-65
2021/10/18 07:52:15;;;;;;;;;20.00;19.75;;;;;12.33;59.71;101697.09;6280454;22;47575;-67
2021/10/18 07:54:42;;;;;;;;;25.75;21.75;;;;;12.38;59.79;101697.88;6308002;22;45342;-64
2021/10/18 07:57:09;;;;;;;;;23.75;23.75;;;;;12.38;60.10;101690.72;6309128;22;45424;-64
2021/10/18 07:59:36;;;;;;;;;23.50;23.25;;;;;12.63;59.90;101735.63;6307105;22;45477;-64
2021/10/18 08:02:02;;;;;;;;;23.50;23.25;;;;;12.47;60.10;101710.16;6280391;22;48189;-64
2021/10/18 08:04:28;;;;;;;;;21.75;21.00;;;;;12.31;60.11;101694.47;6280413;22;45611;-65
2021/10/18 08:06:53;;;;;;;;;24.00;21.50;;;;;12.40;60.14;101704.94;6308789;22;45570;-64
2021/10/18 08:09:20;;;;;;;;;25.50;21.50;;;;;12.38;60.08;101708.59;6308420;22;45495;-65
2021/10/18 08:11:46;;;;;;;;;25.25;23.50;;;;;12.72;60.25;101764.00;6308153;22;45346;-64
2021/10/18 08:14:11;;;;;;;;;25.00;23.50;;;;;12.56;60.31;101720.63;6279800;22;45167;-64
2021/10/18 08:16:37;;;;;;;;;20.50;20.25;;;;;12.62;60.34;101717.78;6309152;22;45455;-65
2021/10/18 08:19:03;;;;;;;;;26.25;24.75;;;;;12.82;60.33;101752.13;6308259;22;45341;-64
2021/10/18 08:21:28;;;;;;;;;25.25;24.25;;;;;12.85;60.49;101757.41;6308237;22;46031;-65
2021/10/18 08:23:54;;;;;;;;;25.50;24.25;;;;;12.50;60.67;101705.59;6307377;22;45318;-64
2021/10/18 08:26:19;;;;;;;;;25.50;23.00;;;;;12.79;60.42;101753.06;6282011;22;45404;-64
2021/10/18 08:28:45;;;;;;;;;23.25;21.75;;;;;12.73;60.68;101741.63;6282048;22;45675;-63
2021/10/18 08:31:11;;;;;;;;;25.75;25.75;;;;;12.95;60.88;101776.81;6308986;22;45429;-63
2021/10/18 08:33:36;;;;;;;;;24.75;24.75;;;;;12.78;60.54;101745.97;6281160;22;45244;-66
2021/10/18 08:36:05;;;;;;;;;23.50;23.50;;;;;12.77;60.86;101737.97;6308620;22;45370;-66
2021/10/18 08:50:01;;;;;;;;;;;;;;;;;;;;;
2021/10/18 09:23:40;;;;;;;;;24.50;23.75;;;;;13.65;61.50;101701.59;6323255;22;45326;-64
2021/10/18 09:27:16;;;;;;;;;;;;;;;;;;;;;
2021/10/18 09:33:22;;;;;;;;;;;;;;;;;;;;;
2021/10/18 09:36:13;;;;;;;;;;;;;;;;;;;;;
2021/10/18 09:38:58;;;;;;;;;;;;;;;;;;;;;
2021/10/18 09:41:41;;;;;;;;;;;;;;;;;;;;;
2021/10/18 09:45:08;;;;;;;;;;;;;;;;;;;;;
2021/10/18 11:07:31;;;;;;;;;;;;;;;;;;;;;
2021/10/18 11:10:29;;;;;;;;;32.25;31.00;;;;;15.63;62.85;101692.22;6037139;23;71412;-63
2021/10/18 11:48:24;;;;;;;;;;;;;;;;;;;;;
2021/10/18 11:51:49;;;;;;;;;;;;;;;;;;;;;
2021/10/18 11:54:53;;;;;;;;;;;;;;;;;;;;;
2021/10/18 12:04:54;;;;;;;;;;;;;;;;;;;;;
2021/10/18 12:08:03;;;;;;;;;20.75;19.50;;;;;16.64;63.62;101626.16;6265601;22;45188;-66
2021/10/18 12:24:37;;;;;;;;;;;;;;;;;;;;;
2021/10/18 12:27:59;;;;;;;;;;;;;;;;;;;;;
2021/10/18 12:48:28;;;;;;;;;;;;;;;;;;;;;
2021/10/18 12:58:48;;;;;;;;;;;;;;;;;;;;;
2021/10/18 13:09:31;;;;;;;;;;;;;;;;;;;;;
2021/10/18 13:16:04;;;;;;;;;;;;;;;;;;;;;
2021/10/18 13:22:58;;;;;;;;;;;;;;;;;;;;;
2021/10/18 13:26:31;;;;;;;;;;;;;;;;;;;;;
2021/10/18 13:43:26;;;;;;;;;;;;;;;;;;;;;
2021/10/18 13:57:31;;;;;;;;;;;;;;;;;;;;;
2021/10/18 13:59:53;;;;;;;;;17.50;17.50;;;;;18.47;62.39;101586.03;6157739;22;45563;-65
2021/10/18 17:24:48;;;;;;;;;9.67;9.67;;;;;18.80;64.56;101609.56;6310387;22;1361139;-66
2021/10/18 18:00:11;;;;;;;;;;;;;;;;;;;;;
2021/10/18 18:02:35;;;;;;;;;;;;;;;;;;;;;
2021/10/18 18:12:28;;;;;;;;;;;;;;;;;;;;;
2021/10/18 18:15:43;;;;;;;;;13.00;12.25;;;;;18.58;64.88;101626.91;6091540;23;69284;-67
2021/10/18 18:18:16;;;;;;;;;19.75;16.75;;;;;18.58;65.58;101634.16;6075616;23;45396;-66
2021/10/18 18:21:48;;;;;;;;;15.00;13.50;;;;;18.66;65.55;101650.81;6199740;22;45465;-67
2021/10/18 18:24:21;;;;;;;;;14.75;14.75;;;;;18.69;65.25;101661.47;6141878;22;45315;-66
2021/10/18 18:27:03;;;;;;;;;17.25;15.75;;;;;18.68;65.07;101665.16;6188206;22;45399;-66
2021/10/18 18:30:07;;;;;;;;;;;;;;;;;;;;;
2021/10/18 18:32:53;;;;;;;;;20.50;15.00;;;;;18.34;65.12;101615.50;6285064;22;74017;-66
2021/10/18 18:35:27;;;;;;;;;16.75;16.25;;;;;18.47;66.04;101645.50;6372877;22;45579;-66
2021/10/18 18:37:55;;;;;;;;;18.00;13.50;;;;;18.62;65.57;101674.44;6372874;22;45232;-66
2021/10/18 18:40:54;;;;;;;;;;;;;;;;;;;;;
2021/10/18 18:43:53;;;;;;;;;12.50;12.50;;;;;18.63;66.54;101672.63;6368289;22;73795;-66
2021/10/18 18:47:08;;;;;;;;;;;;;;;;;;;;;
2021/10/18 19:03:52;;;;;;;;;;;;;;;;;;;;;
2021/10/18 19:09:20;;;;;;;;;;;;;;;;;;;;;
2021/10/18 19:11:47;;;;;;;;;15.75;14.50;;;;;18.35;67.02;101644.28;6237525;22;73019;-66
2021/10/18 19:14:12;;;;;;;;;17.25;15.75;;;;;18.26;66.91;101632.13;6268121;22;45611;-66
2021/10/18 19:16:45;;;;;;;;;16.25;14.50;;;;;18.18;66.92;101619.97;6269476;22;45533;-66
2021/10/18 19:19:11;;;;;;;;;15.50;14.25;;;;;18.28;66.64;101638.31;6252154;22;48153;-66
2021/10/18 19:21:37;;;;;;;;;19.50;18.50;;;;;18.36;66.62;101655.97;6338560;22;45450;-66
2021/10/18 19:24:03;;;;;;;;;18.50;17.00;;;;;18.32;66.46;101644.44;6338293;22;45356;-65
2021/10/18 19:26:28;;;;;;;;;20.00;18.50;;;;;18.47;66.43;101673.41;6365108;22;45377;-66
2021/10/18 19:28:54;;;;;;;;;16.00;15.00;;;;;18.33;66.69;101657.88;6338990;22;47058;-66
2021/10/18 19:31:19;;;;;;;;;19.75;18.00;;;;;18.29;67.35;101644.59;6339048;22;45378;-66
2021/10/18 19:33:48;;;;;;;;;19.75;19.75;;;;;18.27;67.96;101647.38;6367593;22;45396;-66
2021/10/18 19:36:23;;;;;;;;;19.50;17.00;;;;;18.37;68.07;101674.81;6338956;22;45837;-66
2021/10/18 19:38:52;;;;;;;;;19.00;18.00;;;;;18.25;68.09;101649.28;6363996;22;46624;-66
2021/10/18 19:41:23;;;;;;;;;18.50;17.00;;;;;18.23;68.08;101640.38;6367082;22;45318;-66
2021/10/18 19:43:54;;;;;;;;;17.50;15.75;;;;;18.19;67.57;101638.78;6367129;22;45614;-66
2021/10/18 19:46:39;;;;;;;;;;;;;;;;;;;;;
2021/10/18 19:49:04;;;;;;;;;14.00;13.75;;;;;18.36;68.10;101678.50;6367550;22;75135;-65
2021/10/18 19:51:30;;;;;;;;;20.00;19.00;;;;;18.03;68.25;101619.78;6340396;22;45444;-66
2021/10/18 19:54:08;;;;;;;;;23.50;21.75;;;;;18.02;68.44;101617.16;6339731;22;45365;-66
2021/10/18 19:56:42;;;;;;;;;20.50;18.50;;;;;18.22;67.70;101656.69;6336818;22;45645;-64
2021/10/18 19:59:23;;;;;;;;;;;;;;;;;;;;;
2021/10/18 20:02:38;;;;;;;;;;;;;;;;;;;;;
2021/10/18 20:05:14;;;;;;;;;;;;;;;;;;;;;
2021/10/18 20:08:37;;;;;;;;;23.75;23.00;;;;;18.34;68.43;101683.06;6367139;22;72745;-66
2021/10/18 20:11:11;;;;;;;;;23.50;23.50;;;;;18.33;68.21;101673.25;6362597;22;46170;-65
2021/10/18 20:13:37;;;;;;;;;24.75;22.75;;;;;18.17;68.00;101647.94;6367541;22;45433;-65
2021/10/18 20:16:03;;;;;;;;;22.25;21.00;;;;;18.31;67.10;101669.75;6339714;22;45603;-65
2021/10/18 20:18:30;;;;;;;;;21.75;21.75;;;;;18.31;67.45;101677.84;6340134;22;46469;-65
2021/10/18 20:21:28;;;;;;;;;;;;;;;;;;;;;
2021/10/18 20:24:56;;;;;;;;;;;;;;;;;;;;;
2021/10/18 20:28:23;;;;;;;;;23.00;20.75;;;;;18.17;68.18;101651.50;6331286;22;67425;-66
2021/10/18 20:31:03;;;;;;;;;26.00;24.75;;;;;18.14;67.80;101652.53;6364204;22;45570;-66
2021/10/18 20:40:13;;;;;;;;;;;;;;;;;;;;;
2021/10/18 20:42:52;;;;;;;;;;;;;;;;;;;;;
2021/10/18 20:45:42;;;;;;;;;;;;;;;;;;;;;
2021/10/18 20:48:17;;;;;;;;;20.75;20.75;;;;;18.26;68.60;101664.56;6366932;22;73155;-66
2021/10/18 20:50:55;;;;;;;;;;;;;;;;;;;;;
2021/10/18 20:53:53;;;;;;;;;;;;;;;;;;;;;
2021/10/18 20:56:24;;;;;;;;;28.25;25.00;;;;;18.07;68.46;101634.84;6355729;22;73852;-65
2021/10/18 20:59:08;;;;;;;;;;;;;;;;;;;;;
2021/10/18 21:05:43;;;;;;;;;24.25;23.50;;;;;18.03;68.89;101630.56;6350104;22;45514;-66
2021/10/18 21:08:41;;;;;;;;;;;;;;;;;;;;;
2021/10/18 21:11:09;;;;;;;;;25.25;24.25;;;;;18.06;69.21;101630.44;6366672;22;71338;-65
2021/10/18 21:13:39;;;;;;;;;25.00;21.50;;;;;18.23;70.04;101659.31;6339533;22;45571;-66
2021/10/18 21:16:25;;;;;;;;;23.50;23.50;;;;;18.18;69.38;101650.56;6339470;22;45648;-65
2021/10/18 21:23:21;;;;;;;;;;;;;;;;;;;;;
2021/10/18 21:27:01;;;;;;;;;;;;;;;;;;;;;
2021/10/18 21:30:15;;;;;;;;;;;;;;;;;;;;;
2021/10/18 21:33:52;;;;;;;;;;;;;;;;;;;;;
2021/10/18 21:36:21;;;;;;;;;28.75;26.25;;;;;17.98;70.15;101631.78;6263183;22;45462;-66
2021/10/18 21:46:08;;;;;;;;;;;;;;;;;;;;;
2021/10/18 22:02:18;;;;;;;;;;;;;;;;;;;;;
2021/10/18 22:05:35;;;;;;;;;26.50;23.50;;;;;18.11;70.11;101625.66;6359787;22;45614;-65
2021/10/18 22:09:07;;;;;;;;;;;;;;;;;;;;;
2021/10/18 22:12:21;;;;;;;;;;;;;;;;;;;;;
2021/10/18 22:21:54;;;;;;;;;;;;;;;;;;;;;
2021/10/18 22:25:01;;;;;;;;;;;;;;;;;;;;;
2021/10/18 22:37:37;;;;;;;;;;;;;;;;;;;;;
2021/10/18 22:40:45;;;;;;;;;;;;;;;;;;;;;
2021/10/18 22:53:29;;;;;;;;;;;;;;;;;;;;;
2021/10/18 23:06:19;;;;;;;;;;;;;;;;;;;;;
2021/10/18 23:09:02;;;;;;;;;;;;;;;;;;;;;
2021/10/18 23:15:32;;;;;;;;;;;;;;;;;;;;;
2021/10/18 23:18:57;;;;;;;;;;;;;;;;;;;;;
2021/10/18 23:24:43;;;;;;;;;21.25;20.25;;;;;17.94;70.82;101574.28;6347454;22;46734;-65
2021/10/18 23:31:11;;;;;;;;;;;;;;;;;;;;;
2021/10/18 23:34:27;;;;;;;;;;;;;;;;;;;;;
2021/10/18 23:37:43;;;;;;;;;;;;;;;;;;;;;
2021/10/18 23:43:53;;;;;;;;;18.50;18.50;;;;;17.73;71.13;101547.38;6354779;22;45270;-65
2021/10/18 23:46:51;;;;;;;;;;;;;;;;;;;;;
2021/10/18 23:49:43;;;;;;;;;;;;;;;;;;;;;